This is the latest recevied weather packets stored in our database for station/object WD7OO. If no packets are shown the sender has not sent any weather packets the latest 10 day(s).
| Time | Temp. | Humidity | Pressure | Rain* | Wind** | Luminosity | Snow |
|---|---|---|---|---|---|---|---|
| 1777141061 | 21.67° C | 56% | 1013.6 hPa | 0 mm | - | 741 W/m² | - |
| 1777140759 | 21.11° C | 56% | 1013.4 hPa | 0 mm | - | 760 W/m² | - |
| 1777140455 | 20.56° C | 57% | 1013.6 hPa | 0 mm | - | 786 W/m² | - |
| 1777140153 | 21.11° C | 56% | 1013.5 hPa | 0 mm | - | 787 W/m² | - |
| 1777139850 | 20.56° C | 62% | 1013.5 hPa | 0 mm | - | 786 W/m² | - |
| 1777139548 | 20° C | 63% | 1013.2 hPa | 0 mm | - | 749 W/m² | - |
| 1777139247 | 20° C | 62% | 1013.5 hPa | 0 mm | - | 709 W/m² | - |
| 1777138945 | 19.44° C | 65% | 1013.5 hPa | 0 mm | - | 697 W/m² | - |
| 1777138641 | 20° C | 60% | 1013.4 hPa | 0 mm | - | 682 W/m² | - |
| 1777138336 | 20.56° C | 59% | 1013.3 hPa | 0 mm | - | 687 W/m² | - |
| 1777138033 | 20° C | 63% | 1013.6 hPa | 0 mm | - | 682 W/m² | - |
| 1777137729 | 20° C | 60% | 1013.5 hPa | 0 mm | - | 724 W/m² | - |
| 1777137425 | 19.44° C | 65% | 1013.5 hPa | 0 mm | - | 730 W/m² | - |
| 1777137122 | 18.89° C | 65% | 1013.5 hPa | 0 mm | - | 691 W/m² | - |
| 1777136819 | 18.89° C | 64% | 1013.5 hPa | 0 mm | - | 694 W/m² | - |
| 1777136516 | 18.89° C | 62% | 1013.5 hPa | 0 mm | - | 718 W/m² | - |
| 1777136213 | 18.89° C | 66% | 1013.7 hPa | 0 mm | - | 715 W/m² | - |
| 1777135910 | 18.33° C | 65% | 1013.5 hPa | 0 mm | - | 705 W/m² | - |
| 1777135605 | 17.78° C | 68% | 1013.8 hPa | 0 mm | - | 685 W/m² | - |
| 1777135302 | 17.78° C | 67% | 1013.9 hPa | 0 mm | - | 694 W/m² | - |
| 1777134999 | 16.67° C | 70% | 1013.8 hPa | 0 mm | - | 715 W/m² | - |
| 1777134697 | 16.67° C | 71% | 1013.8 hPa | 0 mm | - | 723 W/m² | - |
* Rain latest hour (hover to see other rain measurements)
** Current wind speed in m/s (hover to see current wind gust speed)